sensor_id;sensor_type;location;lat;lon;timestamp;temperature;humidity
9209;DHT22;4639;48.862;9.188;2023-05-10T00:00:26;14.70;99.90
9209;DHT22;4639;48.862;9.188;2023-05-10T00:02:52;14.60;99.90
9209;DHT22;4639;48.862;9.188;2023-05-10T00:05:18;14.50;99.90
9209;DHT22;4639;48.862;9.188;2023-05-10T00:07:43;14.20;99.90
9209;DHT22;4639;48.862;9.188;2023-05-10T00:10:10;14.10;99.90
9209;DHT22;4639;48.862;9.188;2023-05-10T00:12:36;14.10;99.90
9209;DHT22;4639;48.862;9.188;2023-05-10T00:15:02;14.00;99.90
9209;DHT22;4639;48.862;9.188;2023-05-10T00:17:28;14.00;99.90
9209;DHT22;4639;48.862;9.188;2023-05-10T00:19:54;13.90;99.90
9209;DHT22;4639;48.862;9.188;2023-05-10T00:22:20;13.90;99.90
9209;DHT22;4639;48.862;9.188;2023-05-10T00:24:46;13.80;99.90
9209;DHT22;4639;48.862;9.188;2023-05-10T00:27:11;13.80;99.90
9209;DHT22;4639;48.862;9.188;2023-05-10T00:29:37;13.80;99.90
9209;DHT22;4639;48.862;9.188;2023-05-10T00:32:02;13.80;99.90
9209;DHT22;4639;48.862;9.188;2023-05-10T00:34:28;13.80;99.90
9209;DHT22;4639;48.862;9.188;2023-05-10T00:36:54;13.70;99.90
9209;DHT22;4639;48.862;9.188;2023-05-10T00:39:20;13.50;99.90
9209;DHT22;4639;48.862;9.188;2023-05-10T00:41:45;13.50;99.90
9209;DHT22;4639;48.862;9.188;2023-05-10T00:44:11;13.50;99.90
9209;DHT22;4639;48.862;9.188;2023-05-10T00:46:37;13.50;99.90
9209;DHT22;4639;48.862;9.188;2023-05-10T00:49:02;13.50;99.90
9209;DHT22;4639;48.862;9.188;2023-05-10T00:51:28;13.60;99.90
9209;DHT22;4639;48.862;9.188;2023-05-10T00:53:54;13.50;99.90
9209;DHT22;4639;48.862;9.188;2023-05-10T00:56:21;13.50;99.90
9209;DHT22;4639;48.862;9.188;2023-05-10T00:58:48;13.50;99.90
9209;DHT22;4639;48.862;9.188;2023-05-10T01:01:14;13.50;99.90
9209;DHT22;4639;48.862;9.188;2023-05-10T01:03:40;13.50;99.90
9209;DHT22;4639;48.862;9.188;2023-05-10T01:06:06;13.50;99.90
9209;DHT22;4639;48.862;9.188;2023-05-10T01:08:31;13.50;99.90
9209;DHT22;4639;48.862;9.188;2023-05-10T01:10:57;13.50;99.90
9209;DHT22;4639;48.862;9.188;2023-05-10T01:13:31;13.50;99.90
9209;DHT22;4639;48.862;9.188;2023-05-10T01:15:58;13.40;99.90
9209;DHT22;4639;48.862;9.188;2023-05-10T01:18:25;13.40;99.90
9209;DHT22;4639;48.862;9.188;2023-05-10T01:23:45;13.30;99.90
9209;DHT22;4639;48.862;9.188;2023-05-10T01:35:06;13.30;99.90
9209;DHT22;4639;48.862;9.188;2023-05-10T01:37:44;13.30;99.90
9209;DHT22;4639;48.862;9.188;2023-05-10T01:40:20;13.40;99.90
9209;DHT22;4639;48.862;9.188;2023-05-10T01:42:54;13.40;99.90
9209;DHT22;4639;48.862;9.188;2023-05-10T01:45:33;13.50;99.90
9209;DHT22;4639;48.862;9.188;2023-05-10T01:48:11;13.40;99.90
9209;DHT22;4639;48.862;9.188;2023-05-10T01:50:43;13.40;99.90
9209;DHT22;4639;48.862;9.188;2023-05-10T01:53:10;13.40;99.90
9209;DHT22;4639;48.862;9.188;2023-05-10T01:55:45;13.40;99.90
9209;DHT22;4639;48.862;9.188;2023-05-10T01:58:17;13.40;99.90
9209;DHT22;4639;48.862;9.188;2023-05-10T02:00:44;13.40;99.90
9209;DHT22;4639;48.862;9.188;2023-05-10T02:03:11;13.50;99.90
9209;DHT22;4639;48.862;9.188;2023-05-10T02:05:39;13.50;99.90
9209;DHT22;4639;48.862;9.188;2023-05-10T02:08:08;13.50;99.90
9209;DHT22;4639;48.862;9.188;2023-05-10T02:10:35;13.50;99.90
9209;DHT22;4639;48.862;9.188;2023-05-10T02:13:02;13.50;99.90
9209;DHT22;4639;48.862;9.188;2023-05-10T02:15:28;13.50;99.90
9209;DHT22;4639;48.862;9.188;2023-05-10T02:17:55;13.40;99.90
9209;DHT22;4639;48.862;9.188;2023-05-10T02:20:23;13.50;99.90
9209;DHT22;4639;48.862;9.188;2023-05-10T02:22:51;13.40;99.90
9209;DHT22;4639;48.862;9.188;2023-05-10T02:25:19;13.40;99.90
9209;DHT22;4639;48.862;9.188;2023-05-10T02:27:46;13.40;99.90
9209;DHT22;4639;48.862;9.188;2023-05-10T02:30:13;13.50;99.90
9209;DHT22;4639;48.862;9.188;2023-05-10T02:32:39;13.40;99.90
9209;DHT22;4639;48.862;9.188;2023-05-10T02:35:05;13.50;99.90
9209;DHT22;4639;48.862;9.188;2023-05-10T02:37:31;13.40;99.90
9209;DHT22;4639;48.862;9.188;2023-05-10T02:39:58;13.40;99.90
9209;DHT22;4639;48.862;9.188;2023-05-10T02:42:27;13.30;99.90
9209;DHT22;4639;48.862;9.188;2023-05-10T02:44:59;13.40;99.90
9209;DHT22;4639;48.862;9.188;2023-05-10T02:47:25;13.40;99.90
9209;DHT22;4639;48.862;9.188;2023-05-10T02:49:51;13.50;99.90
9209;DHT22;4639;48.862;9.188;2023-05-10T02:52:22;13.40;99.90
9209;DHT22;4639;48.862;9.188;2023-05-10T02:54:50;13.40;99.90
9209;DHT22;4639;48.862;9.188;2023-05-10T02:57:22;13.50;99.90
9209;DHT22;4639;48.862;9.188;2023-05-10T02:59:48;13.50;99.90
9209;DHT22;4639;48.862;9.188;2023-05-10T03:02:14;13.50;99.90
9209;DHT22;4639;48.862;9.188;2023-05-10T03:04:40;13.50;99.90
9209;DHT22;4639;48.862;9.188;2023-05-10T03:07:05;13.50;99.90
9209;DHT22;4639;48.862;9.188;2023-05-10T03:09:32;13.40;99.90
9209;DHT22;4639;48.862;9.188;2023-05-10T03:15:00;13.40;99.90
9209;DHT22;4639;48.862;9.188;2023-05-10T03:20:03;13.40;99.90
9209;DHT22;4639;48.862;9.188;2023-05-10T03:22:40;13.70;99.90
9209;DHT22;4639;48.862;9.188;2023-05-10T03:25:11;13.50;99.90
9209;DHT22;4639;48.862;9.188;2023-05-10T03:27:40;13.50;99.90
9209;DHT22;4639;48.862;9.188;2023-05-10T03:30:10;13.40;99.90
9209;DHT22;4639;48.862;9.188;2023-05-10T03:32:36;13.50;99.90
9209;DHT22;4639;48.862;9.188;2023-05-10T03:35:12;13.50;99.90
9209;DHT22;4639;48.862;9.188;2023-05-10T03:37:38;13.60;99.90
9209;DHT22;4639;48.862;9.188;2023-05-10T03:40:04;13.50;99.90
9209;DHT22;4639;48.862;9.188;2023-05-10T03:42:32;13.50;99.90
9209;DHT22;4639;48.862;9.188;2023-05-10T03:44:57;13.70;99.90
9209;DHT22;4639;48.862;9.188;2023-05-10T03:47:23;13.70;99.90
9209;DHT22;4639;48.862;9.188;2023-05-10T03:49:48;13.70;99.90
9209;DHT22;4639;48.862;9.188;2023-05-10T03:52:14;13.80;99.90
9209;DHT22;4639;48.862;9.188;2023-05-10T03:54:39;13.70;99.90
9209;DHT22;4639;48.862;9.188;2023-05-10T03:57:05;13.80;99.90
9209;DHT22;4639;48.862;9.188;2023-05-10T03:59:31;13.70;99.90
9209;DHT22;4639;48.862;9.188;2023-05-10T04:01:56;13.80;99.90
9209;DHT22;4639;48.862;9.188;2023-05-10T04:04:22;13.80;99.90
9209;DHT22;4639;48.862;9.188;2023-05-10T04:06:48;13.90;99.90
9209;DHT22;4639;48.862;9.188;2023-05-10T04:09:14;13.80;99.90
9209;DHT22;4639;48.862;9.188;2023-05-10T04:11:39;13.60;99.90
9209;DHT22;4639;48.862;9.188;2023-05-10T04:14:05;13.60;99.90
9209;DHT22;4639;48.862;9.188;2023-05-10T04:16:31;13.50;99.90
9209;DHT22;4639;48.862;9.188;2023-05-10T04:18:56;13.60;99.90
9209;DHT22;4639;48.862;9.188;2023-05-10T04:21:22;13.50;99.90
9209;DHT22;4639;48.862;9.188;2023-05-10T04:23:48;13.50;99.90
9209;DHT22;4639;48.862;9.188;2023-05-10T04:26:13;13.60;99.90
9209;DHT22;4639;48.862;9.188;2023-05-10T04:28:39;13.60;99.90
9209;DHT22;4639;48.862;9.188;2023-05-10T04:31:09;13.50;99.90
9209;DHT22;4639;48.862;9.188;2023-05-10T04:33:36;13.60;99.90
9209;DHT22;4639;48.862;9.188;2023-05-10T04:36:02;13.60;99.90
9209;DHT22;4639;48.862;9.188;2023-05-10T04:38:28;13.60;99.90
9209;DHT22;4639;48.862;9.188;2023-05-10T04:40:54;13.60;99.90
9209;DHT22;4639;48.862;9.188;2023-05-10T04:43:20;13.40;99.90
9209;DHT22;4639;48.862;9.188;2023-05-10T04:45:45;13.30;99.90
9209;DHT22;4639;48.862;9.188;2023-05-10T04:48:11;13.40;99.90
9209;DHT22;4639;48.862;9.188;2023-05-10T04:50:37;13.50;99.90
9209;DHT22;4639;48.862;9.188;2023-05-10T04:53:02;13.60;99.90
9209;DHT22;4639;48.862;9.188;2023-05-10T04:55:28;13.60;99.90
9209;DHT22;4639;48.862;9.188;2023-05-10T04:57:54;13.70;99.90
9209;DHT22;4639;48.862;9.188;2023-05-10T05:00:23;13.80;99.90
9209;DHT22;4639;48.862;9.188;2023-05-10T05:02:48;13.80;99.90
9209;DHT22;4639;48.862;9.188;2023-05-10T05:05:14;13.90;99.90
9209;DHT22;4639;48.862;9.188;2023-05-10T05:07:40;13.80;99.90
9209;DHT22;4639;48.862;9.188;2023-05-10T05:10:06;13.90;99.90
9209;DHT22;4639;48.862;9.188;2023-05-10T05:12:32;14.00;99.90
9209;DHT22;4639;48.862;9.188;2023-05-10T05:14:58;14.00;99.90
9209;DHT22;4639;48.862;9.188;2023-05-10T05:17:23;14.00;99.90
9209;DHT22;4639;48.862;9.188;2023-05-10T05:19:49;14.00;99.90
9209;DHT22;4639;48.862;9.188;2023-05-10T05:22:14;13.90;99.90
9209;DHT22;4639;48.862;9.188;2023-05-10T05:24:40;13.90;99.90
9209;DHT22;4639;48.862;9.188;2023-05-10T05:27:06;13.90;99.90
9209;DHT22;4639;48.862;9.188;2023-05-10T05:29:32;13.90;99.90
9209;DHT22;4639;48.862;9.188;2023-05-10T05:31:57;13.90;99.90
9209;DHT22;4639;48.862;9.188;2023-05-10T05:34:23;13.90;99.90
9209;DHT22;4639;48.862;9.188;2023-05-10T05:36:49;14.00;99.90
9209;DHT22;4639;48.862;9.188;2023-05-10T05:39:15;14.10;99.90
9209;DHT22;4639;48.862;9.188;2023-05-10T05:41:41;14.20;99.90
9209;DHT22;4639;48.862;9.188;2023-05-10T05:44:07;14.10;99.90
9209;DHT22;4639;48.862;9.188;2023-05-10T05:46:33;14.00;99.90
9209;DHT22;4639;48.862;9.188;2023-05-10T05:48:58;14.00;99.90
9209;DHT22;4639;48.862;9.188;2023-05-10T05:51:24;13.90;99.90
9209;DHT22;4639;48.862;9.188;2023-05-10T05:53:49;13.90;99.90
9209;DHT22;4639;48.862;9.188;2023-05-10T05:56:15;13.90;99.90
9209;DHT22;4639;48.862;9.188;2023-05-10T05:58:40;13.90;99.90
9209;DHT22;4639;48.862;9.188;2023-05-10T06:01:06;14.00;99.90
9209;DHT22;4639;48.862;9.188;2023-05-10T06:03:32;14.10;99.90
9209;DHT22;4639;48.862;9.188;2023-05-10T06:05:58;14.10;99.90
9209;DHT22;4639;48.862;9.188;2023-05-10T06:08:24;14.10;99.90
9209;DHT22;4639;48.862;9.188;2023-05-10T06:10:49;14.20;99.90
9209;DHT22;4639;48.862;9.188;2023-05-10T06:13:15;14.20;99.90
9209;DHT22;4639;48.862;9.188;2023-05-10T06:15:40;14.10;99.90
9209;DHT22;4639;48.862;9.188;2023-05-10T06:18:06;14.10;99.90
9209;DHT22;4639;48.862;9.188;2023-05-10T06:20:31;14.20;99.90
9209;DHT22;4639;48.862;9.188;2023-05-10T06:22:57;14.20;99.90
9209;DHT22;4639;48.862;9.188;2023-05-10T06:25:23;14.30;99.90
9209;DHT22;4639;48.862;9.188;2023-05-10T06:27:49;14.20;99.90
9209;DHT22;4639;48.862;9.188;2023-05-10T06:30:14;14.20;99.90
9209;DHT22;4639;48.862;9.188;2023-05-10T06:32:41;14.30;99.90
9209;DHT22;4639;48.862;9.188;2023-05-10T06:35:07;14.40;99.90
9209;DHT22;4639;48.862;9.188;2023-05-10T06:37:39;14.50;99.90
9209;DHT22;4639;48.862;9.188;2023-05-10T06:40:06;14.50;99.90
9209;DHT22;4639;48.862;9.188;2023-05-10T06:42:32;14.40;99.90
9209;DHT22;4639;48.862;9.188;2023-05-10T06:44:57;14.40;99.90
9209;DHT22;4639;48.862;9.188;2023-05-10T06:47:23;14.40;99.90
9209;DHT22;4639;48.862;9.188;2023-05-10T06:49:48;14.40;99.90
9209;DHT22;4639;48.862;9.188;2023-05-10T06:52:14;14.50;99.90
9209;DHT22;4639;48.862;9.188;2023-05-10T06:54:39;14.50;99.90
9209;DHT22;4639;48.862;9.188;2023-05-10T06:57:05;14.50;99.90
9209;DHT22;4639;48.862;9.188;2023-05-10T06:59:30;14.60;99.90
9209;DHT22;4639;48.862;9.188;2023-05-10T07:01:56;14.60;99.90
9209;DHT22;4639;48.862;9.188;2023-05-10T07:04:22;14.70;99.90
9209;DHT22;4639;48.862;9.188;2023-05-10T07:06:47;14.60;99.90
9209;DHT22;4639;48.862;9.188;2023-05-10T07:09:14;14.50;99.90
9209;DHT22;4639;48.862;9.188;2023-05-10T07:11:41;14.60;99.90
9209;DHT22;4639;48.862;9.188;2023-05-10T07:14:06;14.70;99.90
9209;DHT22;4639;48.862;9.188;2023-05-10T07:16:32;14.80;99.90
9209;DHT22;4639;48.862;9.188;2023-05-10T07:18:57;14.80;99.90
9209;DHT22;4639;48.862;9.188;2023-05-10T07:21:23;15.10;99.90
9209;DHT22;4639;48.862;9.188;2023-05-10T07:23:54;14.90;99.90
9209;DHT22;4639;48.862;9.188;2023-05-10T07:26:19;14.80;99.90
9209;DHT22;4639;48.862;9.188;2023-05-10T07:28:46;14.80;99.90
9209;DHT22;4639;48.862;9.188;2023-05-10T07:31:12;14.90;99.90
9209;DHT22;4639;48.862;9.188;2023-05-10T07:33:37;14.70;99.90
9209;DHT22;4639;48.862;9.188;2023-05-10T07:36:03;14.80;99.90
9209;DHT22;4639;48.862;9.188;2023-05-10T07:38:28;14.80;99.90
9209;DHT22;4639;48.862;9.188;2023-05-10T07:40:54;14.80;99.90
9209;DHT22;4639;48.862;9.188;2023-05-10T07:43:20;14.80;99.90
9209;DHT22;4639;48.862;9.188;2023-05-10T07:45:45;14.80;99.90
9209;DHT22;4639;48.862;9.188;2023-05-10T07:48:11;14.80;99.90
9209;DHT22;4639;48.862;9.188;2023-05-10T07:50:36;14.80;99.90
9209;DHT22;4639;48.862;9.188;2023-05-10T07:53:02;14.80;99.90
9209;DHT22;4639;48.862;9.188;2023-05-10T07:55:27;14.80;99.90
9209;DHT22;4639;48.862;9.188;2023-05-10T07:57:53;14.80;99.90
9209;DHT22;4639;48.862;9.188;2023-05-10T08:00:19;14.90;99.90
9209;DHT22;4639;48.862;9.188;2023-05-10T08:02:46;15.10;99.90
9209;DHT22;4639;48.862;9.188;2023-05-10T08:05:12;15.30;99.90
9209;DHT22;4639;48.862;9.188;2023-05-10T08:07:38;15.20;99.90
9209;DHT22;4639;48.862;9.188;2023-05-10T08:10:04;15.30;99.90
9209;DHT22;4639;48.862;9.188;2023-05-10T08:12:30;15.20;99.90
9209;DHT22;4639;48.862;9.188;2023-05-10T08:14:56;15.20;99.90
9209;DHT22;4639;48.862;9.188;2023-05-10T08:17:22;15.20;99.90
9209;DHT22;4639;48.862;9.188;2023-05-10T08:19:47;15.20;99.90
9209;DHT22;4639;48.862;9.188;2023-05-10T08:22:13;15.30;99.90
9209;DHT22;4639;48.862;9.188;2023-05-10T08:24:38;15.40;99.90
9209;DHT22;4639;48.862;9.188;2023-05-10T08:27:05;15.40;99.90
9209;DHT22;4639;48.862;9.188;2023-05-10T08:29:31;15.40;99.90
9209;DHT22;4639;48.862;9.188;2023-05-10T08:31:56;15.30;99.90
9209;DHT22;4639;48.862;9.188;2023-05-10T08:34:22;15.30;99.90
9209;DHT22;4639;48.862;9.188;2023-05-10T08:36:47;15.40;99.90
9209;DHT22;4639;48.862;9.188;2023-05-10T08:39:13;15.40;99.90
9209;DHT22;4639;48.862;9.188;2023-05-10T08:41:39;15.30;99.90
9209;DHT22;4639;48.862;9.188;2023-05-10T08:44:08;15.20;99.90
9209;DHT22;4639;48.862;9.188;2023-05-10T08:46:34;15.20;99.90
9209;DHT22;4639;48.862;9.188;2023-05-10T08:49:02;15.10;99.90
9209;DHT22;4639;48.862;9.188;2023-05-10T08:51:35;15.10;99.90
9209;DHT22;4639;48.862;9.188;2023-05-10T08:54:02;15.20;99.90
9209;DHT22;4639;48.862;9.188;2023-05-10T08:56:29;15.30;99.90
9209;DHT22;4639;48.862;9.188;2023-05-10T08:58:54;15.40;99.90
9209;DHT22;4639;48.862;9.188;2023-05-10T09:01:21;15.50;99.90
9209;DHT22;4639;48.862;9.188;2023-05-10T09:03:47;15.60;99.90
9209;DHT22;4639;48.862;9.188;2023-05-10T09:06:13;15.60;99.90
9209;DHT22;4639;48.862;9.188;2023-05-10T09:08:41;15.70;99.90
9209;DHT22;4639;48.862;9.188;2023-05-10T09:11:07;15.70;99.90
9209;DHT22;4639;48.862;9.188;2023-05-10T09:13:35;15.70;99.90
9209;DHT22;4639;48.862;9.188;2023-05-10T09:16:01;15.80;99.90
9209;DHT22;4639;48.862;9.188;2023-05-10T09:18:26;15.90;99.90
9209;DHT22;4639;48.862;9.188;2023-05-10T09:20:52;15.80;99.90
9209;DHT22;4639;48.862;9.188;2023-05-10T09:23:18;15.80;99.90
9209;DHT22;4639;48.862;9.188;2023-05-10T09:25:43;15.80;99.90
9209;DHT22;4639;48.862;9.188;2023-05-10T09:28:09;16.10;99.90
9209;DHT22;4639;48.862;9.188;2023-05-10T09:30:35;15.90;99.90
9209;DHT22;4639;48.862;9.188;2023-05-10T09:33:01;16.00;99.90
9209;DHT22;4639;48.862;9.188;2023-05-10T09:35:30;15.90;99.90
9209;DHT22;4639;48.862;9.188;2023-05-10T09:37:58;16.00;99.90
9209;DHT22;4639;48.862;9.188;2023-05-10T09:40:26;16.10;99.90
9209;DHT22;4639;48.862;9.188;2023-05-10T09:43:04;16.20;99.90
9209;DHT22;4639;48.862;9.188;2023-05-10T09:45:32;16.40;99.90
9209;DHT22;4639;48.862;9.188;2023-05-10T09:47:59;16.60;99.90
9209;DHT22;4639;48.862;9.188;2023-05-10T09:50:26;16.60;99.90
9209;DHT22;4639;48.862;9.188;2023-05-10T09:53:00;16.60;99.90
9209;DHT22;4639;48.862;9.188;2023-05-10T09:55:40;16.50;99.90
9209;DHT22;4639;48.862;9.188;2023-05-10T09:58:06;16.40;99.90
9209;DHT22;4639;48.862;9.188;2023-05-10T10:00:40;16.20;99.90
9209;DHT22;4639;48.862;9.188;2023-05-10T10:03:12;16.10;99.90
9209;DHT22;4639;48.862;9.188;2023-05-10T10:05:40;15.90;99.90
9209;DHT22;4639;48.862;9.188;2023-05-10T10:08:06;15.80;99.90
9209;DHT22;4639;48.862;9.188;2023-05-10T10:10:33;15.70;99.90
9209;DHT22;4639;48.862;9.188;2023-05-10T10:12:59;15.60;99.90
9209;DHT22;4639;48.862;9.188;2023-05-10T10:15:25;15.70;99.90
9209;DHT22;4639;48.862;9.188;2023-05-10T10:17:52;15.80;99.90
9209;DHT22;4639;48.862;9.188;2023-05-10T10:20:19;15.70;99.90
9209;DHT22;4639;48.862;9.188;2023-05-10T10:22:45;15.80;99.90
9209;DHT22;4639;48.862;9.188;2023-05-10T10:25:13;15.70;99.90
9209;DHT22;4639;48.862;9.188;2023-05-10T10:30:43;15.70;99.90
9209;DHT22;4639;48.862;9.188;2023-05-10T10:33:24;15.50;99.90
9209;DHT22;4639;48.862;9.188;2023-05-10T10:35:54;15.50;99.90
9209;DHT22;4639;48.862;9.188;2023-05-10T10:38:21;15.90;99.90
9209;DHT22;4639;48.862;9.188;2023-05-10T10:40:47;15.70;99.90
9209;DHT22;4639;48.862;9.188;2023-05-10T10:43:28;15.80;99.90
9209;DHT22;4639;48.862;9.188;2023-05-10T10:46:20;15.90;99.90
9209;DHT22;4639;48.862;9.188;2023-05-10T10:49:07;15.90;99.90
9209;DHT22;4639;48.862;9.188;2023-05-10T10:51:37;15.90;99.90
9209;DHT22;4639;48.862;9.188;2023-05-10T10:54:12;16.30;99.90
9209;DHT22;4639;48.862;9.188;2023-05-10T10:56:38;16.30;99.90
9209;DHT22;4639;48.862;9.188;2023-05-10T10:59:03;16.20;99.90
9209;DHT22;4639;48.862;9.188;2023-05-10T11:01:35;15.90;99.90
9209;DHT22;4639;48.862;9.188;2023-05-10T11:06:34;16.00;99.90
9209;DHT22;4639;48.862;9.188;2023-05-10T11:09:20;16.10;99.90
9209;DHT22;4639;48.862;9.188;2023-05-10T11:11:53;16.10;99.90
9209;DHT22;4639;48.862;9.188;2023-05-10T11:14:23;16.00;99.90
9209;DHT22;4639;48.862;9.188;2023-05-10T11:16:49;16.00;99.90
9209;DHT22;4639;48.862;9.188;2023-05-10T11:19:16;16.50;99.90
9209;DHT22;4639;48.862;9.188;2023-05-10T11:21:46;16.70;99.90
9209;DHT22;4639;48.862;9.188;2023-05-10T11:24:15;16.90;99.90
9209;DHT22;4639;48.862;9.188;2023-05-10T11:26:41;17.20;99.90
9209;DHT22;4639;48.862;9.188;2023-05-10T11:29:06;17.10;99.90
9209;DHT22;4639;48.862;9.188;2023-05-10T11:31:33;17.20;99.90
9209;DHT22;4639;48.862;9.188;2023-05-10T11:33:59;17.30;99.90
9209;DHT22;4639;48.862;9.188;2023-05-10T11:36:37;17.40;99.90
9209;DHT22;4639;48.862;9.188;2023-05-10T11:39:03;17.10;99.90
9209;DHT22;4639;48.862;9.188;2023-05-10T11:41:30;17.00;99.90
9209;DHT22;4639;48.862;9.188;2023-05-10T11:43:56;17.00;99.90
9209;DHT22;4639;48.862;9.188;2023-05-10T11:46:24;16.90;99.90
9209;DHT22;4639;48.862;9.188;2023-05-10T11:48:52;16.80;99.90
9209;DHT22;4639;48.862;9.188;2023-05-10T11:51:24;16.80;99.90
9209;DHT22;4639;48.862;9.188;2023-05-10T11:53:53;16.70;99.90
9209;DHT22;4639;48.862;9.188;2023-05-10T11:56:19;16.70;99.90
9209;DHT22;4639;48.862;9.188;2023-05-10T11:58:54;16.40;99.90
9209;DHT22;4639;48.862;9.188;2023-05-10T12:01:21;16.50;99.90
9209;DHT22;4639;48.862;9.188;2023-05-10T12:03:49;16.50;99.90
9209;DHT22;4639;48.862;9.188;2023-05-10T12:06:15;16.60;99.90
9209;DHT22;4639;48.862;9.188;2023-05-10T12:08:45;16.60;99.90
9209;DHT22;4639;48.862;9.188;2023-05-10T12:11:12;16.70;99.90
9209;DHT22;4639;48.862;9.188;2023-05-10T12:13:40;16.80;99.90
9209;DHT22;4639;48.862;9.188;2023-05-10T12:16:17;16.70;99.90
9209;DHT22;4639;48.862;9.188;2023-05-10T12:18:43;16.40;99.90
9209;DHT22;4639;48.862;9.188;2023-05-10T12:21:12;16.30;99.90
9209;DHT22;4639;48.862;9.188;2023-05-10T12:23:41;16.20;99.90
9209;DHT22;4639;48.862;9.188;2023-05-10T12:26:09;16.20;99.90
9209;DHT22;4639;48.862;9.188;2023-05-10T12:28:35;16.10;99.90
9209;DHT22;4639;48.862;9.188;2023-05-10T12:31:01;16.10;99.90
9209;DHT22;4639;48.862;9.188;2023-05-10T12:33:27;16.10;99.90
9209;DHT22;4639;48.862;9.188;2023-05-10T12:36:00;16.20;99.90
9209;DHT22;4639;48.862;9.188;2023-05-10T12:38:35;16.10;99.90
9209;DHT22;4639;48.862;9.188;2023-05-10T12:41:05;16.00;99.90
9209;DHT22;4639;48.862;9.188;2023-05-10T12:43:32;16.00;99.90
9209;DHT22;4639;48.862;9.188;2023-05-10T12:45:58;16.10;99.90
9209;DHT22;4639;48.862;9.188;2023-05-10T12:48:24;16.20;99.90
9209;DHT22;4639;48.862;9.188;2023-05-10T12:50:50;16.30;99.90
9209;DHT22;4639;48.862;9.188;2023-05-10T12:53:16;16.30;99.90
9209;DHT22;4639;48.862;9.188;2023-05-10T12:55:45;16.30;99.90
9209;DHT22;4639;48.862;9.188;2023-05-10T12:58:10;16.40;99.90
9209;DHT22;4639;48.862;9.188;2023-05-10T13:00:36;16.60;99.90
9209;DHT22;4639;48.862;9.188;2023-05-10T13:03:06;16.70;99.90
9209;DHT22;4639;48.862;9.188;2023-05-10T13:05:32;16.80;99.90
9209;DHT22;4639;48.862;9.188;2023-05-10T13:07:58;16.90;99.90
9209;DHT22;4639;48.862;9.188;2023-05-10T13:10:24;17.20;99.90
9209;DHT22;4639;48.862;9.188;2023-05-10T13:12:50;17.10;99.90
9209;DHT22;4639;48.862;9.188;2023-05-10T13:15:16;17.20;99.90
9209;DHT22;4639;48.862;9.188;2023-05-10T13:17:42;17.10;99.90
9209;DHT22;4639;48.862;9.188;2023-05-10T13:20:08;17.20;99.90
9209;DHT22;4639;48.862;9.188;2023-05-10T13:22:37;17.00;99.90
9209;DHT22;4639;48.862;9.188;2023-05-10T13:25:02;16.80;99.90
9209;DHT22;4639;48.862;9.188;2023-05-10T13:27:28;16.90;99.90
9209;DHT22;4639;48.862;9.188;2023-05-10T13:29:54;16.90;99.90
9209;DHT22;4639;48.862;9.188;2023-05-10T13:32:20;16.90;99.90
9209;DHT22;4639;48.862;9.188;2023-05-10T13:34:46;16.90;99.90
9209;DHT22;4639;48.862;9.188;2023-05-10T13:37:11;16.90;99.90
9209;DHT22;4639;48.862;9.188;2023-05-10T13:39:37;16.90;99.90
9209;DHT22;4639;48.862;9.188;2023-05-10T13:42:03;16.90;99.90
9209;DHT22;4639;48.862;9.188;2023-05-10T13:44:29;16.90;99.90
9209;DHT22;4639;48.862;9.188;2023-05-10T13:46:55;17.10;99.90
9209;DHT22;4639;48.862;9.188;2023-05-10T13:49:21;17.10;99.90
9209;DHT22;4639;48.862;9.188;2023-05-10T13:51:47;17.20;99.90
9209;DHT22;4639;48.862;9.188;2023-05-10T13:54:13;17.20;99.90
9209;DHT22;4639;48.862;9.188;2023-05-10T13:56:39;17.20;99.90
9209;DHT22;4639;48.862;9.188;2023-05-10T13:59:04;17.30;99.90
9209;DHT22;4639;48.862;9.188;2023-05-10T14:01:30;17.40;99.90
9209;DHT22;4639;48.862;9.188;2023-05-10T14:03:56;17.40;99.90
9209;DHT22;4639;48.862;9.188;2023-05-10T14:06:22;17.30;99.90
9209;DHT22;4639;48.862;9.188;2023-05-10T14:08:47;17.20;99.90
9209;DHT22;4639;48.862;9.188;2023-05-10T14:11:13;17.10;99.90
9209;DHT22;4639;48.862;9.188;2023-05-10T14:13:39;17.10;99.90
9209;DHT22;4639;48.862;9.188;2023-05-10T14:16:04;17.20;99.90
9209;DHT22;4639;48.862;9.188;2023-05-10T14:18:30;17.20;99.90
9209;DHT22;4639;48.862;9.188;2023-05-10T14:20:56;17.20;99.90
9209;DHT22;4639;48.862;9.188;2023-05-10T14:23:22;17.00;99.90
9209;DHT22;4639;48.862;9.188;2023-05-10T14:25:52;17.10;99.90
9209;DHT22;4639;48.862;9.188;2023-05-10T14:28:17;17.20;99.90
9209;DHT22;4639;48.862;9.188;2023-05-10T14:30:44;17.00;99.90
9209;DHT22;4639;48.862;9.188;2023-05-10T14:33:09;16.90;99.90
9209;DHT22;4639;48.862;9.188;2023-05-10T14:35:35;16.80;99.90
9209;DHT22;4639;48.862;9.188;2023-05-10T14:38:02;16.70;99.90
9209;DHT22;4639;48.862;9.188;2023-05-10T14:40:29;16.80;99.90
9209;DHT22;4639;48.862;9.188;2023-05-10T14:42:54;16.90;99.90
9209;DHT22;4639;48.862;9.188;2023-05-10T14:45:21;17.00;99.90
9209;DHT22;4639;48.862;9.188;2023-05-10T14:47:48;17.10;99.90
9209;DHT22;4639;48.862;9.188;2023-05-10T14:50:14;16.90;99.90
9209;DHT22;4639;48.862;9.188;2023-05-10T14:52:39;17.10;99.90
9209;DHT22;4639;48.862;9.188;2023-05-10T14:55:06;17.20;99.90
9209;DHT22;4639;48.862;9.188;2023-05-10T14:57:31;17.30;99.90
9209;DHT22;4639;48.862;9.188;2023-05-10T14:59:57;17.40;99.90
9209;DHT22;4639;48.862;9.188;2023-05-10T15:02:23;17.10;99.90
9209;DHT22;4639;48.862;9.188;2023-05-10T15:04:49;17.10;99.90
9209;DHT22;4639;48.862;9.188;2023-05-10T15:07:14;17.10;99.90
9209;DHT22;4639;48.862;9.188;2023-05-10T15:09:41;16.90;99.90
9209;DHT22;4639;48.862;9.188;2023-05-10T15:12:07;17.10;99.90
9209;DHT22;4639;48.862;9.188;2023-05-10T15:14:32;17.20;99.90
9209;DHT22;4639;48.862;9.188;2023-05-10T15:16:59;17.30;99.90
9209;DHT22;4639;48.862;9.188;2023-05-10T15:19:24;17.30;99.90
9209;DHT22;4639;48.862;9.188;2023-05-10T15:21:50;17.20;99.90
9209;DHT22;4639;48.862;9.188;2023-05-10T15:24:15;17.40;99.90
9209;DHT22;4639;48.862;9.188;2023-05-10T15:26:41;17.20;99.90
9209;DHT22;4639;48.862;9.188;2023-05-10T15:29:07;17.20;99.90
9209;DHT22;4639;48.862;9.188;2023-05-10T15:31:33;17.20;99.90
9209;DHT22;4639;48.862;9.188;2023-05-10T15:34:01;17.20;99.90
9209;DHT22;4639;48.862;9.188;2023-05-10T15:36:26;17.20;99.90
9209;DHT22;4639;48.862;9.188;2023-05-10T15:38:53;17.30;99.90
9209;DHT22;4639;48.862;9.188;2023-05-10T15:41:19;17.20;99.90
9209;DHT22;4639;48.862;9.188;2023-05-10T15:43:44;17.30;99.90
9209;DHT22;4639;48.862;9.188;2023-05-10T15:46:10;17.30;99.90
9209;DHT22;4639;48.862;9.188;2023-05-10T15:48:36;17.40;99.90
9209;DHT22;4639;48.862;9.188;2023-05-10T15:51:02;17.60;99.90
9209;DHT22;4639;48.862;9.188;2023-05-10T15:53:27;17.40;99.90
9209;DHT22;4639;48.862;9.188;2023-05-10T15:55:53;17.50;99.90
9209;DHT22;4639;48.862;9.188;2023-05-10T15:58:19;17.40;99.90
9209;DHT22;4639;48.862;9.188;2023-05-10T16:00:45;17.20;99.90
9209;DHT22;4639;48.862;9.188;2023-05-10T16:03:10;17.30;99.90
9209;DHT22;4639;48.862;9.188;2023-05-10T16:05:36;17.40;99.90
9209;DHT22;4639;48.862;9.188;2023-05-10T16:08:01;17.50;99.90
9209;DHT22;4639;48.862;9.188;2023-05-10T16:10:29;17.40;99.90
9209;DHT22;4639;48.862;9.188;2023-05-10T16:12:56;17.40;99.90
9209;DHT22;4639;48.862;9.188;2023-05-10T16:15:21;17.50;99.90
9209;DHT22;4639;48.862;9.188;2023-05-10T16:17:47;17.50;99.90
9209;DHT22;4639;48.862;9.188;2023-05-10T16:20:14;17.50;99.90
9209;DHT22;4639;48.862;9.188;2023-05-10T16:22:40;17.50;99.90